Time;durP1;ratioP1;P1;durP2;ratioP2;P2;SDS_P1;SDS_P2;PMS_P1;PMS_P2;Temp;Humidity;BMP_temperature;BMP_pressure;BME280_temperature;BME280_humidity;BME280_pressure;Samples;Min_cycle;Max_cycle;Signal;HPM_P1;HPM_P2
2023/07/18 00:02:17;;;;;;;17.92;6.10;;;;;;;14.55;100.00;101826.81;5029452;28;20034;-72
2023/07/18 00:05:04;;;;;;;16.33;6.78;;;;;;;14.66;100.00;101835.13;5016170;28;20046;-71
2023/07/18 00:07:50;;;;;;;11.48;6.43;;;;;;;14.52;100.00;101830.66;5018358;28;20110;-71
2023/07/18 00:10:36;;;;;;;17.85;6.07;;;;;;;14.55;100.00;101827.66;5028268;28;20041;-71
2023/07/18 00:13:23;;;;;;;14.88;7.20;;;;;;;14.50;100.00;101833.53;5020156;28;20038;-71
2023/07/18 00:16:09;;;;;;;14.07;7.68;;;;;;;14.51;100.00;101835.31;5020559;28;20037;-71
2023/07/18 00:18:55;;;;;;;16.83;7.72;;;;;;;14.46;100.00;101833.91;5020850;28;20060;-71
2023/07/18 00:21:41;;;;;;;14.13;7.97;;;;;;;14.42;100.00;101836.03;5027862;28;20098;-71
2023/07/18 00:24:28;;;;;;;11.65;6.30;;;;;;;14.45;100.00;101835.78;5018883;28;20101;-71
2023/07/18 00:27:16;;;;;;;14.38;7.88;;;;;;;14.37;100.00;101840.16;5016069;28;20073;-71
2023/07/18 00:30:03;;;;;;;14.80;6.60;;;;;;;14.26;100.00;101841.00;5003333;28;20061;-71
2023/07/18 00:32:49;;;;;;;15.25;7.75;;;;;;;14.28;100.00;101844.50;5026182;28;20017;-71
2023/07/18 00:35:34;;;;;;;15.65;8.55;;;;;;;14.31;100.00;101844.28;5026858;28;20085;-71
2023/07/18 00:38:20;;;;;;;16.88;8.48;;;;;;;14.41;100.00;101845.28;5027397;28;20133;-71
2023/07/18 00:41:08;;;;;;;12.27;8.13;;;;;;;14.32;100.00;101843.28;5032369;28;20052;-71
2023/07/18 00:43:54;;;;;;;14.07;8.75;;;;;;;14.30;100.00;101845.28;5019373;28;20038;-71
2023/07/18 00:46:39;;;;;;;26.15;9.15;;;;;;;14.29;100.00;101841.63;5028173;28;20060;-71
2023/07/18 00:49:25;;;;;;;19.30;9.18;;;;;;;14.25;100.00;101839.25;5020125;28;20046;-72
2023/07/18 00:52:12;;;;;;;22.38;10.00;;;;;;;14.34;100.00;101844.03;5013568;28;20074;-71
2023/07/18 00:54:58;;;;;;;17.63;9.15;;;;;;;14.43;100.00;101843.31;5009255;28;20026;-71
2023/07/18 00:57:46;;;;;;;15.52;9.18;;;;;;;14.45;100.00;101845.94;5026848;28;20068;-72
2023/07/18 01:00:31;;;;;;;21.77;9.13;;;;;;;14.40;100.00;101835.28;5025827;28;20022;-71
2023/07/18 01:03:18;;;;;;;16.85;9.60;;;;;;;14.33;100.00;101826.63;5028117;28;20046;-71
2023/07/18 01:06:05;;;;;;;19.40;9.23;;;;;;;14.38;100.00;101815.25;5029909;28;20046;-71
2023/07/18 01:08:52;;;;;;;14.15;7.20;;;;;;;14.38;100.00;101815.25;5023400;28;20042;-71
2023/07/18 01:11:38;;;;;;;12.93;7.22;;;;;;;14.04;100.00;101815.16;5012722;28;20136;-69
2023/07/18 01:14:25;;;;;;;26.58;9.20;;;;;;;13.98;100.00;101823.91;5012381;28;20804;-69
2023/07/18 01:17:12;;;;;;;16.27;9.05;;;;;;;13.98;100.00;101821.16;5006900;28;20038;-69
2023/07/18 01:19:58;;;;;;;15.30;8.00;;;;;;;13.87;100.00;101823.84;4997562;28;20438;-69
2023/07/18 01:22:48;;;;;;;19.13;9.23;;;;;;;13.86;100.00;101824.88;4998244;28;20049;-70
2023/07/18 01:25:34;;;;;;;16.33;8.45;;;;;;;13.95;100.00;101827.78;5004969;28;20046;-70
2023/07/18 01:28:20;;;;;;;17.35;8.88;;;;;;;13.98;100.00;101821.16;4997861;28;20469;-69
2023/07/18 01:31:06;;;;;;;21.10;8.82;;;;;;;13.83;100.00;101816.84;4991166;28;20504;-68
2023/07/18 01:33:51;;;;;;;18.23;8.82;;;;;;;13.87;100.00;101822.00;5000705;28;20358;-69
2023/07/18 01:36:37;;;;;;;22.65;8.88;;;;;;;13.78;100.00;101815.31;5005903;28;20604;-69
2023/07/18 01:39:23;;;;;;;18.67;9.45;;;;;;;13.76;100.00;101814.56;5003582;28;20038;-68
2023/07/18 01:42:09;;;;;;;19.30;9.85;;;;;;;13.72;100.00;101810.28;4997369;28;20042;-69
2023/07/18 01:44:54;;;;;;;13.27;8.15;;;;;;;13.71;100.00;101802.16;5002228;28;20038;-68
2023/07/18 01:47:40;;;;;;;16.75;9.60;;;;;;;13.67;100.00;101815.25;5004614;28;20501;-69
2023/07/18 01:50:26;;;;;;;15.38;9.25;;;;;;;13.55;100.00;101803.31;5009413;28;20080;-69
2023/07/18 01:53:12;;;;;;;13.48;8.88;;;;;;;13.62;100.00;101803.72;5005418;28;20049;-69
2023/07/18 01:55:59;;;;;;;19.73;9.43;;;;;;;13.54;100.00;101804.34;5007459;28;20048;-69
2023/07/18 01:58:44;;;;;;;19.23;9.55;;;;;;;13.58;100.00;101796.72;5004861;28;20184;-70
2023/07/18 02:01:30;;;;;;;17.50;10.00;;;;;;;13.42;100.00;101792.38;5005248;28;20042;-69
2023/07/18 02:04:16;;;;;;;17.63;9.60;;;;;;;13.32;100.00;101794.06;4994098;28;20076;-70
2023/07/18 02:07:02;;;;;;;13.95;8.10;;;;;;;13.42;100.00;101797.88;5003574;28;20052;-70
2023/07/18 02:09:49;;;;;;;23.67;9.05;;;;;;;13.31;100.00;101785.91;4991058;28;20053;-70
2023/07/18 02:12:34;;;;;;;21.65;9.75;;;;;;;13.35;100.00;101788.34;5000913;28;20046;-69
2023/07/18 02:15:21;;;;;;;15.73;9.30;;;;;;;13.37;100.00;101782.72;5000452;28;20045;-70
2023/07/18 02:18:07;;;;;;;16.02;9.05;;;;;;;13.28;100.00;101778.78;5004732;28;20030;-69
2023/07/18 02:20:53;;;;;;;19.35;9.40;;;;;;;13.16;100.00;101777.81;5008479;28;20041;-69
2023/07/18 02:23:39;;;;;;;15.98;9.25;;;;;;;13.33;100.00;101773.84;5004759;28;20048;-69
2023/07/18 02:26:25;;;;;;;19.35;9.40;;;;;;;13.40;100.00;101782.50;5005831;28;20058;-69
2023/07/18 02:29:10;;;;;;;12.20;8.40;;;;;;;13.37;100.00;101769.84;4990133;28;20366;-69
2023/07/18 02:31:56;;;;;;;17.52;9.60;;;;;;;13.38;100.00;101776.22;5007351;28;20068;-69
2023/07/18 02:34:43;;;;;;;17.92;9.18;;;;;;;13.42;100.00;101781.38;5009367;28;20042;-69
2023/07/18 02:37:29;;;;;;;20.52;9.63;;;;;;;13.30;100.00;101782.28;5005440;28;20073;-70
2023/07/18 02:40:17;;;;;;;26.75;9.95;;;;;;;13.26;100.00;101786.25;5006625;28;20303;-69
2023/07/18 02:43:02;;;;;;;18.00;9.55;;;;;;;13.35;100.00;101781.97;5005036;28;20070;-69
2023/07/18 02:45:48;;;;;;;16.17;9.45;;;;;;;13.23;100.00;101780.97;5001230;28;20503;-69
2023/07/18 02:48:34;;;;;;;18.05;9.20;;;;;;;13.18;100.00;101780.44;4990139;28;20085;-68
2023/07/18 02:51:20;;;;;;;17.90;9.23;;;;;;;13.15;100.00;101786.19;4995032;28;20054;-69
2023/07/18 02:54:05;;;;;;;18.23;9.00;;;;;;;13.12;100.00;101787.31;5003118;28;20655;-70
2023/07/18 02:56:51;;;;;;;17.10;9.35;;;;;;;13.20;100.00;101779.34;4975818;28;20049;-69
2023/07/18 02:59:37;;;;;;;16.40;8.13;;;;;;;13.23;100.00;101784.63;5003384;28;20121;-70
2023/07/18 03:02:23;;;;;;;25.30;9.35;;;;;;;13.19;100.00;101777.59;5006623;28;20053;-69
2023/07/18 03:05:09;;;;;;;17.85;8.00;;;;;;;13.19;100.00;101768.47;5008620;28;20088;-69
2023/07/18 03:07:55;;;;;;;16.75;7.82;;;;;;;13.06;100.00;101779.50;4996978;28;20092;-70
2023/07/18 03:10:42;;;;;;;13.55;7.45;;;;;;;13.04;100.00;101778.75;4990350;28;20052;-69
2023/07/18 03:13:28;;;;;;;15.80;6.72;;;;;;;12.99;100.00;101779.09;5000795;28;20049;-68
2023/07/18 03:16:13;;;;;;;13.05;8.30;;;;;;;12.98;100.00;101779.19;5002015;28;20045;-69
2023/07/18 03:18:59;;;;;;;20.48;7.28;;;;;;;12.96;100.00;101776.56;5009702;28;20046;-70
2023/07/18 03:21:45;;;;;;;14.82;7.30;;;;;;;12.98;100.00;101773.69;4995977;28;20065;-69
2023/07/18 03:24:34;;;;;;;14.45;7.13;;;;;;;13.04;100.00;101773.25;5007666;28;20053;-69
2023/07/18 03:27:19;;;;;;;16.25;6.60;;;;;;;13.07;100.00;101773.03;5005090;28;20042;-69
2023/07/18 03:30:06;;;;;;;12.93;7.10;;;;;;;13.00;100.00;101767.13;5002108;28;20501;-68
2023/07/18 03:32:53;;;;;;;12.30;6.78;;;;;;;12.95;100.00;101773.94;5003657;28;20042;-70
2023/07/18 03:35:39;;;;;;;14.30;6.57;;;;;;;12.96;100.00;101773.81;5008146;28;20050;-69
2023/07/18 03:38:25;;;;;;;12.40;7.03;;;;;;;12.92;100.00;101768.66;4997564;28;20601;-69
2023/07/18 03:41:10;;;;;;;12.43;6.00;;;;;;;12.82;100.00;101772.09;4992284;28;20037;-71
2023/07/18 03:43:56;;;;;;;12.25;6.15;;;;;;;12.90;100.00;101765.16;5019331;28;20052;-70
2023/07/18 03:46:42;;;;;;;15.20;6.07;;;;;;;12.76;100.00;101760.69;5010255;28;20038;-70
2023/07/18 03:49:29;;;;;;;12.13;6.15;;;;;;;12.88;100.00;101763.38;4999029;28;20041;-70
2023/07/18 03:52:15;;;;;;;12.10;6.00;;;;;;;12.91;100.00;101761.41;5008261;28;20091;-69
2023/07/18 03:55:01;;;;;;;15.27;6.20;;;;;;;12.87;100.00;101769.00;5006574;28;20076;-70
2023/07/18 03:57:46;;;;;;;15.77;6.97;;;;;;;12.99;100.00;101761.72;5005974;28;20042;-69
2023/07/18 04:00:32;;;;;;;7.85;5.78;;;;;;;12.87;100.00;101758.91;5004134;28;20045;-69
2023/07/18 04:03:18;;;;;;;14.52;6.88;;;;;;;12.70;100.00;101770.25;5009244;28;20758;-70
2023/07/18 04:06:04;;;;;;;14.15;7.15;;;;;;;12.80;100.00;101773.19;5011448;28;20116;-68
2023/07/18 04:08:49;;;;;;;15.02;6.07;;;;;;;12.89;100.00;101764.28;5011059;28;20131;-68
2023/07/18 04:11:35;;;;;;;7.28;5.93;;;;;;;12.80;100.00;101756.72;5002173;28;20068;-69
2023/07/18 04:14:21;;;;;;;15.00;6.68;;;;;;;12.91;100.00;101750.44;4998434;28;20087;-68
2023/07/18 04:17:07;;;;;;;12.23;6.50;;;;;;;12.95;100.00;101754.69;4999303;28;20100;-68
2023/07/18 04:19:56;;;;;;;13.23;5.75;;;;;;;12.87;100.00;101753.41;5003353;28;20490;-68
2023/07/18 04:22:42;;;;;;;14.35;6.28;;;;;;;12.92;100.00;101758.56;5005281;28;20042;-68
2023/07/18 04:25:34;;;;;;;20.38;7.35;;;;;;;12.93;100.00;101751.19;5022660;28;20042;-67
2023/07/18 04:28:20;;;;;;;13.98;6.57;;;;;;;12.88;100.00;101743.28;5003203;28;20041;-69
2023/07/18 04:31:06;;;;;;;8.23;6.03;;;;;;;12.98;100.00;101747.09;5008872;28;20050;-66
2023/07/18 04:33:52;;;;;;;10.90;5.55;;;;;;;13.10;100.00;101748.06;5010362;28;20034;-68
2023/07/18 04:36:37;;;;;;;12.10;6.25;;;;;;;13.02;100.00;101745.88;5008760;28;20057;-68
2023/07/18 04:39:24;;;;;;;13.68;6.13;;;;;;;12.94;100.00;101747.44;4996951;28;20137;-67
2023/07/18 04:42:11;;;;;;;14.57;6.05;;;;;;;12.93;100.00;101746.56;4997841;28;20504;-68
2023/07/18 04:44:57;;;;;;;6.85;5.72;;;;;;;12.97;100.00;101745.34;5007477;28;20109;-68
2023/07/18 04:47:43;;;;;;;12.10;6.57;;;;;;;12.80;100.00;101745.72;5005267;28;20112;-68
2023/07/18 04:50:29;;;;;;;14.98;6.25;;;;;;;12.80;100.00;101749.34;5002843;28;20035;-69
2023/07/18 04:53:14;;;;;;;15.88;6.68;;;;;;;12.85;100.00;101749.00;5004118;28;20042;-67
2023/07/18 04:56:00;;;;;;;15.38;6.07;;;;;;;12.89;100.00;101745.03;5009714;28;20421;-69
2023/07/18 04:58:46;;;;;;;11.35;6.25;;;;;;;13.01;100.00;101740.50;5005582;28;20056;-67
2023/07/18 05:01:32;;;;;;;10.23;5.95;;;;;;;13.07;100.00;101737.28;5010748;28;20121;-67
2023/07/18 05:04:17;;;;;;;12.60;6.65;;;;;;;13.07;100.00;101734.53;5009558;28;20129;-70
2023/07/18 05:07:03;;;;;;;12.50;6.68;;;;;;;13.03;100.00;101739.34;5011431;28;20117;-67
2023/07/18 05:09:49;;;;;;;8.43;5.72;;;;;;;13.13;100.00;101741.44;5001136;28;20049;-68
2023/07/18 05:12:35;;;;;;;7.28;5.75;;;;;;;13.21;100.00;101739.84;5008642;28;20129;-67
2023/07/18 05:15:21;;;;;;;16.65;5.78;;;;;;;13.22;100.00;101736.09;5006034;28;20084;-69
2023/07/18 05:18:07;;;;;;;10.55;5.68;;;;;;;13.31;100.00;101739.16;5000881;28;20038;-69
2023/07/18 05:20:56;;;;;;;10.50;5.68;;;;;;;13.42;100.00;101740.09;5010208;28;20665;-68
2023/07/18 05:23:41;;;;;;;13.73;6.22;;;;;;;13.58;100.00;101737.06;5006728;28;20432;-67
2023/07/18 05:26:27;;;;;;;14.52;6.28;;;;;;;13.72;100.00;101733.19;5007102;28;20057;-68
2023/07/18 05:29:13;;;;;;;14.02;5.85;;;;;;;13.86;100.00;101734.88;4996147;28;20037;-67
2023/07/18 05:31:59;;;;;;;7.22;5.50;;;;;;;13.95;100.00;101736.91;5003948;28;20732;-68
2023/07/18 05:34:45;;;;;;;20.98;5.85;;;;;;;14.19;100.00;101724.94;5007731;28;20061;-68
2023/07/18 05:37:30;;;;;;;12.52;5.97;;;;;;;14.49;100.00;101738.09;5004013;28;20049;-67
2023/07/18 05:40:16;;;;;;;10.18;5.85;;;;;;;14.82;100.00;101739.13;5006467;28;20472;-68
2023/07/18 05:43:02;;;;;;;12.60;5.45;;;;;;;15.27;100.00;101738.13;4996413;28;20034;-67
2023/07/18 05:45:49;;;;;;;14.10;5.28;;;;;;;15.54;100.00;101739.53;5006256;28;20046;-70
2023/07/18 05:48:34;;;;;;;12.27;5.53;;;;;;;15.51;100.00;101743.44;5007361;28;20045;-68
2023/07/18 05:51:20;;;;;;;9.43;5.30;;;;;;;15.70;100.00;101739.09;4999422;28;20079;-69
2023/07/18 05:54:06;;;;;;;11.57;5.63;;;;;;;15.80;100.00;101734.53;4984930;28;20045;-68
2023/07/18 05:56:51;;;;;;;11.10;5.93;;;;;;;16.02;100.00;101740.94;5006433;28;20129;-66
2023/07/18 05:59:37;;;;;;;17.98;5.53;;;;;;;16.53;100.00;101737.31;5001868;28;20412;-68
2023/07/18 06:02:23;;;;;;;14.45;5.43;;;;;;;16.53;100.00;101734.53;4993356;28;20049;-71
2023/07/18 06:05:10;;;;;;;9.18;5.13;;;;;;;16.63;100.00;101737.34;4997571;28;20057;-67
2023/07/18 06:07:55;;;;;;;13.45;4.68;;;;;;;16.91;100.00;101738.47;5002395;28;20042;-68
2023/07/18 06:10:41;;;;;;;14.80;4.63;;;;;;;16.91;100.00;101735.72;5007509;28;20050;-67
2023/07/18 06:13:27;;;;;;;11.43;4.63;;;;;;;17.19;100.00;101738.69;4993926;28;20046;-67
2023/07/18 06:16:12;;;;;;;17.63;4.55;;;;;;;17.05;100.00;101743.63;4995742;28;20050;-70
2023/07/18 06:18:58;;;;;;;15.10;4.70;;;;;;;16.95;100.00;101745.47;4976576;28;20048;-68
2023/07/18 06:21:44;;;;;;;11.00;4.57;;;;;;;17.52;100.00;101747.63;5005443;28;20045;-67
2023/07/18 06:24:30;;;;;;;11.65;4.80;;;;;;;17.60;100.00;101753.31;4999330;28;20057;-67
2023/07/18 06:27:15;;;;;;;9.13;4.13;;;;;;;18.09;100.00;101747.75;5000157;28;20044;-67
2023/07/18 06:30:02;;;;;;;12.15;4.28;;;;;;;18.19;100.00;101754.16;5010397;28;20045;-68
2023/07/18 06:32:48;;;;;;;12.15;3.90;;;;;;;18.23;100.00;101755.59;5007200;28;20037;-68
2023/07/18 06:35:37;;;;;;;8.35;4.15;;;;;;;18.38;100.00;101758.75;4992902;28;20049;-68
2023/07/18 06:38:24;;;;;;;13.02;4.55;;;;;;;18.65;100.00;101759.84;4996046;28;20117;-68
2023/07/18 06:41:12;;;;;;;8.40;4.32;;;;;;;18.71;100.00;101753.69;5000801;28;20048;-68
2023/07/18 06:43:58;;;;;;;10.25;4.10;;;;;;;19.18;100.00;101756.38;5000922;28;20470;-68
2023/07/18 06:46:44;;;;;;;12.38;4.30;;;;;;;19.53;100.00;101749.13;5005910;28;20052;-68
2023/07/18 06:49:29;;;;;;;11.13;3.63;;;;;;;19.33;100.00;101744.72;4996520;28;20476;-68
2023/07/18 06:52:15;;;;;;;5.05;2.22;;;;;;;19.92;100.00;101743.25;4999042;28;20045;-68
2023/07/18 06:55:01;;;;;;;20.05;2.45;;;;;;;19.93;100.00;101742.19;4997958;28;20045;-68
2023/07/18 06:57:48;;;;;;;13.35;2.47;;;;;;;20.19;100.00;101739.44;5007629;28;20050;-67
2023/07/18 07:00:34;;;;;;;3.88;2.10;;;;;;;19.65;97.59;101749.75;5004398;28;20038;-69
2023/07/18 07:03:19;;;;;;;4.82;1.60;;;;;;;20.47;97.57;101742.06;5006832;28;20044;-68
2023/07/18 07:06:12;;;;;;;6.68;1.70;;;;;;;20.69;95.67;101736.97;5007354;28;20030;-68
2023/07/18 07:08:58;;;;;;;4.63;2.63;;;;;;;20.63;97.02;101743.19;4990512;28;20057;-68
2023/07/18 07:11:44;;;;;;;6.47;2.10;;;;;;;19.94;98.01;101743.06;5001400;28;20045;-69
2023/07/18 07:14:29;;;;;;;7.18;2.13;;;;;;;20.08;95.13;101736.94;5006965;28;20059;-67
2023/07/18 07:17:15;;;;;;;8.82;2.38;;;;;;;20.13;96.05;101744.78;4993755;28;20042;-68
2023/07/18 07:20:01;;;;;;;5.60;1.88;;;;;;;20.36;95.90;101740.41;5001383;28;20473;-68
2023/07/18 07:22:47;;;;;;;8.50;1.90;;;;;;;20.26;90.96;101738.81;5002508;28;20046;-68
2023/07/18 07:25:33;;;;;;;3.65;1.50;;;;;;;20.17;93.08;101735.09;4999480;28;20515;-67
2023/07/18 07:28:19;;;;;;;3.72;1.50;;;;;;;21.48;90.78;101741.28;4998505;28;20054;-68
2023/07/18 07:31:05;;;;;;;4.30;1.05;;;;;;;21.96;84.54;101735.91;4999039;28;20048;-69
2023/07/18 07:33:51;;;;;;;2.60;1.15;;;;;;;22.29;81.77;101737.81;5005642;28;20112;-69
2023/07/18 07:36:36;;;;;;;5.30;1.63;;;;;;;22.55;78.29;101730.09;5009622;28;20041;-69
2023/07/18 07:39:22;;;;;;;6.20;1.23;;;;;;;22.19;76.48;101735.19;5010427;28;20041;-69
2023/07/18 07:42:08;;;;;;;2.70;1.40;;;;;;;21.58;82.63;101729.97;5005846;28;20046;-69
2023/07/18 07:44:54;;;;;;;5.30;1.20;;;;;;;21.30;79.81;101735.81;5004849;28;20406;-70
2023/07/18 07:47:40;;;;;;;2.90;1.25;;;;;;;21.41;80.72;101734.59;5009150;28;20057;-68
2023/07/18 07:50:26;;;;;;;7.20;1.45;;;;;;;20.99;83.03;101723.53;5009425;28;20080;-68
2023/07/18 07:53:11;;;;;;;5.95;1.63;;;;;;;22.08;79.16;101730.84;4992533;28;20038;-68
2023/07/18 07:55:57;;;;;;;4.63;1.40;;;;;;;22.55;78.91;101734.81;4988332;28;20496;-70
2023/07/18 07:58:43;;;;;;;4.93;1.48;;;;;;;22.93;75.22;101735.88;4995469;28;20077;-68
2023/07/18 08:01:29;;;;;;;5.22;1.30;;;;;;;22.42;75.69;101732.56;5006006;28;20564;-68
2023/07/18 08:04:14;;;;;;;4.85;1.48;;;;;;;22.02;75.63;101732.44;5004894;28;20095;-67
2023/07/18 08:07:00;;;;;;;2.83;1.10;;;;;;;22.51;74.52;101720.34;5005433;28;20050;-69
2023/07/18 08:09:46;;;;;;;3.78;1.17;;;;;;;22.43;72.35;101725.94;5008161;28;20037;-69
2023/07/18 08:12:32;;;;;;;4.25;0.93;;;;;;;21.57;75.90;101719.88;5007895;28;20472;-68
2023/07/18 08:15:18;;;;;;;5.97;1.00;;;;;;;22.27;75.34;101728.72;4977447;28;20528;-68
2023/07/18 08:18:04;;;;;;;9.98;1.08;;;;;;;22.35;70.87;101734.31;4998377;28;20095;-68
2023/07/18 08:20:50;;;;;;;2.13;0.80;;;;;;;22.24;70.17;101721.59;4987092;28;20457;-69
2023/07/18 08:23:35;;;;;;;5.90;0.90;;;;;;;22.84;69.32;101720.22;4986884;28;20076;-69
2023/07/18 08:26:21;;;;;;;4.47;1.10;;;;;;;23.15;68.96;101718.50;5004576;28;20053;-69
2023/07/18 08:29:07;;;;;;;7.28;1.58;;;;;;;23.30;66.72;101717.53;4998051;28;20129;-69
2023/07/18 08:31:54;;;;;;;3.97;1.10;;;;;;;23.69;64.60;101710.06;5005339;28;20091;-69
2023/07/18 08:34:40;;;;;;;4.10;0.80;;;;;;;23.65;62.20;101714.31;4999767;28;20044;-69
2023/07/18 08:37:25;;;;;;;1.88;0.85;;;;;;;23.23;64.81;101708.13;5006429;28;20038;-69
2023/07/18 08:40:12;;;;;;;3.75;0.90;;;;;;;23.53;64.21;101708.31;4997182;28;20046;-69
2023/07/18 08:42:58;;;;;;;6.45;1.10;;;;;;;24.66;59.50;101706.56;5010943;28;20042;-68
2023/07/18 08:45:44;;;;;;;4.00;0.80;;;;;;;23.43;61.12;101707.66;5005329;28;20088;-67
2023/07/18 08:48:31;;;;;;;3.95;0.95;;;;;;;24.24;60.65;101699.63;5008224;28;20053;-68
2023/07/18 08:51:17;;;;;;;2.55;1.00;;;;;;;23.92;60.82;101690.50;5011320;28;20061;-69
2023/07/18 08:54:03;;;;;;;5.82;1.10;;;;;;;23.97;58.86;101690.81;4998967;28;20691;-68
2023/07/18 08:56:48;;;;;;;2.42;0.65;;;;;;;23.38;59.38;101682.19;5003575;28;20038;-70
2023/07/18 08:59:35;;;;;;;3.17;0.70;;;;;;;23.02;61.05;101682.75;5005856;28;20035;-68
2023/07/18 09:02:21;;;;;;;2.28;0.70;;;;;;;23.91;60.17;101676.69;4995478;28;20497;-69
2023/07/18 09:05:26;;;;;;;2.38;0.60;;;;;;;24.13;58.27;101677.72;5004958;28;20073;-68
2023/07/18 09:08:11;;;;;;;3.97;0.70;;;;;;;24.04;57.74;101672.22;5006088;28;20049;-68
2023/07/18 09:11:02;;;;;;;1.50;0.50;;;;;;;24.54;55.02;101666.03;5000511;28;20417;-69
2023/07/18 09:13:48;;;;;;;3.70;0.60;;;;;;;23.90;56.54;101674.97;5005851;28;20412;-70
2023/07/18 09:16:33;;;;;;;3.47;0.65;;;;;;;23.11;58.22;101671.38;5003301;28;20065;-68
2023/07/18 09:19:19;;;;;;;1.98;0.57;;;;;;;23.29;56.82;101662.69;5003183;28;20042;-69
2023/07/18 09:22:13;;;;;;;3.60;0.60;;;;;;;23.66;56.67;101658.22;5007648;28;20093;-68
2023/07/18 09:24:58;;;;;;;1.50;0.60;;;;;;;23.70;54.63;101664.28;5004861;28;20110;-69
2023/07/18 09:27:45;;;;;;;5.82;0.77;;;;;;;23.74;56.41;101664.78;5006196;28;20049;-68
2023/07/18 09:30:35;;;;;;;3.60;0.60;;;;;;;23.60;56.99;101653.38;5003959;28;20045;-69
2023/07/18 09:33:24;;;;;;;3.97;0.70;;;;;;;22.76;59.59;101653.22;5001609;28;20030;-68
2023/07/18 09:36:18;;;;;;;2.95;0.68;;;;;;;22.29;59.99;101642.97;5002727;28;20045;-69
2023/07/18 09:39:05;;;;;;;3.20;0.77;;;;;;;22.24;61.36;101654.63;4998694;28;20046;-68
2023/07/18 09:41:51;;;;;;;3.08;0.60;;;;;;;22.36;60.51;101643.97;4997539;28;20067;-68
2023/07/18 09:44:39;;;;;;;2.60;0.60;;;;;;;21.88;62.45;101645.81;5008096;28;20049;-68
2023/07/18 09:47:26;;;;;;;1.95;0.80;;;;;;;21.85;63.37;101650.69;5002326;28;20034;-68
2023/07/18 09:50:13;;;;;;;2.08;0.50;;;;;;;21.78;63.08;101651.59;5000410;28;20050;-68
2023/07/18 09:53:01;;;;;;;2.40;1.00;;;;;;;22.70;61.59;101654.81;4990044;28;20042;-69
2023/07/18 09:55:48;;;;;;;2.15;0.60;;;;;;;23.66;58.26;101641.44;4995000;28;20069;-71
2023/07/18 09:58:38;;;;;;;1.80;0.60;;;;;;;24.27;56.83;101642.41;5001995;28;20062;-70
2023/07/18 10:01:24;;;;;;;1.48;0.50;;;;;;;24.71;56.20;101642.41;4997136;28;20046;-69
2023/07/18 10:04:10;;;;;;;2.45;0.70;;;;;;;24.90;55.25;101640.03;4999199;28;20050;-69
2023/07/18 10:06:56;;;;;;;1.05;0.60;;;;;;;24.52;52.94;101638.25;4995339;28;20034;-69
2023/07/18 10:09:42;;;;;;;1.42;0.57;;;;;;;25.46;51.71;101636.56;4997413;28;20501;-70
2023/07/18 10:12:28;;;;;;;1.65;0.50;;;;;;;25.19;53.83;101627.88;5002259;28;20069;-70
2023/07/18 10:15:14;;;;;;;2.97;0.75;;;;;;;25.11;51.98;101626.06;5002197;28;20104;-69
2023/07/18 10:18:15;;;;;;;2.67;0.70;;;;;;;24.79;52.51;101618.13;4978047;28;20048;-69
2023/07/18 10:21:01;;;;;;;3.78;0.73;;;;;;;25.10;50.67;101621.53;4998571;28;20025;-70
2023/07/18 10:23:47;;;;;;;3.72;0.70;;;;;;;24.59;51.16;101614.00;5005263;28;20038;-69
2023/07/18 10:26:33;;;;;;;1.25;0.50;;;;;;;24.53;51.91;101614.78;4996402;28;20103;-69
2023/07/18 10:29:19;;;;;;;4.80;0.70;;;;;;;24.49;53.94;101606.97;5005797;28;20045;-69
2023/07/18 10:32:09;;;;;;;6.85;1.02;;;;;;;23.97;54.67;101597.63;5005767;28;20045;-68
2023/07/18 10:34:55;;;;;;;4.20;0.70;;;;;;;23.38;55.10;101593.66;5004149;28;20074;-68
2023/07/18 10:37:49;;;;;;;1.77;0.50;;;;;;;23.38;54.55;101589.97;4976326;28;20034;-68
2023/07/18 10:40:38;;;;;;;1.77;0.70;;;;;;;23.84;53.11;101589.88;5006648;28;20604;-68
2023/07/18 10:43:24;;;;;;;6.38;0.50;;;;;;;24.38;51.56;101592.41;5004059;28;20050;-69
2023/07/18 10:46:10;;;;;;;5.78;0.50;;;;;;;24.31;50.53;101593.38;4997847;28;20042;-69
2023/07/18 10:48:56;;;;;;;1.73;0.70;;;;;;;23.84;54.26;101587.09;4987995;28;20132;-67
2023/07/18 10:51:41;;;;;;;4.60;0.70;;;;;;;23.89;52.55;101579.00;4990992;28;20073;-68
2023/07/18 10:54:27;;;;;;;3.63;0.50;;;;;;;23.49;52.92;101568.00;5003543;28;20471;-69
2023/07/18 10:57:14;;;;;;;5.05;0.60;;;;;;;23.79;52.09;101570.88;5007364;28;20038;-70
2023/07/18 11:00:01;;;;;;;1.40;0.47;;;;;;;23.67;51.84;101572.38;5012420;28;20046;-70
2023/07/18 11:02:48;;;;;;;1.77;0.60;;;;;;;23.75;50.69;101571.44;5018480;28;20041;-70
2023/07/18 11:05:34;;;;;;;1.92;0.50;;;;;;;24.11;51.33;101571.56;5016249;28;20050;-70
2023/07/18 11:08:27;;;;;;;2.22;0.60;;;;;;;24.62;51.14;101576.34;5015185;28;20046;-71
2023/07/18 11:11:15;;;;;;;1.65;0.52;;;;;;;24.16;50.36;101568.19;5021141;28;20038;-70
2023/07/18 11:14:02;;;;;;;3.17;0.65;;;;;;;24.41;51.87;101579.94;5027453;28;20042;-70
2023/07/18 11:16:48;;;;;;;3.40;0.75;;;;;;;24.67;50.97;101573.84;5012524;28;20033;-70
2023/07/18 11:19:35;;;;;;;5.25;0.80;;;;;;;24.90;48.90;101570.00;5022154;28;20034;-71
2023/07/18 11:22:20;;;;;;;1.30;0.57;;;;;;;24.63;48.44;101569.72;5009689;28;20104;-70
2023/07/18 11:25:06;;;;;;;2.30;0.73;;;;;;;24.56;51.87;101568.75;5022758;28;20049;-70
2023/07/18 11:27:52;;;;;;;2.65;0.60;;;;;;;24.56;49.95;101563.13;5016598;28;20042;-71
2023/07/18 11:30:38;;;;;;;6.53;0.80;;;;;;;24.71;49.92;101555.59;5020978;28;20041;-70
2023/07/18 11:33:33;;;;;;;2.15;0.60;;;;;;;24.33;49.09;101557.66;5016312;28;20050;-71
2023/07/18 11:36:20;;;;;;;0.88;0.55;;;;;;;24.48;48.14;101557.63;5016771;28;20046;-70
2023/07/18 11:39:19;;;;;;;4.68;0.63;;;;;;;24.42;49.75;101542.50;5016586;28;20046;-70
2023/07/18 11:42:08;;;;;;;3.13;0.70;;;;;;;24.53;51.83;101541.09;5023570;28;20068;-70
2023/07/18 11:44:54;;;;;;;5.97;0.65;;;;;;;25.10;49.70;101543.06;5017406;28;20517;-70
2023/07/18 11:47:46;;;;;;;3.97;0.80;;;;;;;24.80;47.35;101552.66;5018596;28;20404;-70
2023/07/18 11:50:32;;;;;;;1.40;0.50;;;;;;;24.44;48.33;101554.34;5015202;28;20046;-70
2023/07/18 11:53:26;;;;;;;3.17;0.75;;;;;;;24.90;46.93;101537.22;5018606;28;20045;-70
2023/07/18 11:56:12;;;;;;;3.75;0.60;;;;;;;24.98;48.51;101533.44;5014266;28;20042;-70
2023/07/18 11:58:58;;;;;;;2.70;0.70;;;;;;;24.97;47.10;101530.84;5014197;28;20116;-70
2023/07/18 12:01:43;;;;;;;3.10;0.60;;;;;;;24.85;47.08;101536.13;5008826;28;20452;-70
2023/07/18 12:04:29;;;;;;;1.40;0.40;;;;;;;25.00;45.12;101534.09;5005390;28;20030;-70
2023/07/18 12:07:15;;;;;;;1.48;0.50;;;;;;;25.47;45.46;101524.19;5010236;28;20042;-70
2023/07/18 12:10:06;;;;;;;1.15;0.60;;;;;;;25.01;48.12;101518.19;5009982;28;20824;-70
2023/07/18 12:12:52;;;;;;;1.42;0.57;;;;;;;25.40;48.46;101534.50;5007950;28;20108;-70
2023/07/18 12:15:38;;;;;;;1.30;0.73;;;;;;;25.58;44.79;101527.50;5010007;28;20049;-70
2023/07/18 12:18:24;;;;;;;3.83;0.88;;;;;;;25.18;44.95;101525.22;5013962;28;20093;-70
2023/07/18 12:21:09;;;;;;;3.40;0.60;;;;;;;25.21;46.71;101535.16;5014753;28;20034;-70
2023/07/18 12:23:55;;;;;;;1.30;0.70;;;;;;;25.66;43.95;101533.84;5000986;28;20038;-70
2023/07/18 12:26:41;;;;;;;2.35;0.70;;;;;;;25.57;43.37;101535.06;5010794;28;20138;-70
2023/07/18 12:29:26;;;;;;;2.88;0.73;;;;;;;25.47;42.93;101526.16;5011242;28;20088;-70
2023/07/18 12:32:12;;;;;;;2.30;0.70;;;;;;;25.02;44.26;101522.69;5008779;28;20041;-70
2023/07/18 12:34:58;;;;;;;2.28;0.90;;;;;;;25.64;42.05;101523.88;4998567;28;20040;-70
2023/07/18 12:37:44;;;;;;;2.65;0.68;;;;;;;25.72;42.24;101512.50;5012205;28;20042;-69
2023/07/18 12:40:30;;;;;;;1.63;0.70;;;;;;;25.71;42.94;101515.50;5000852;28;20065;-72
2023/07/18 12:43:15;;;;;;;2.58;0.80;;;;;;;25.80;43.50;101515.13;5017076;28;20046;-72
2023/07/18 12:46:01;;;;;;;2.03;0.75;;;;;;;25.72;42.51;101509.69;5006884;28;20057;-72